createdAt,value
2018-09-08T00:01:05.470Z,12.62
2018-09-08T00:02:14.119Z,12.58
2018-09-08T00:03:22.747Z,12.63
2018-09-08T00:04:31.399Z,12.62
2018-09-08T00:05:40.039Z,12.63
2018-09-08T00:06:48.682Z,12.65
2018-09-08T00:07:57.313Z,12.7
2018-09-08T00:09:05.957Z,12.68
2018-09-08T00:10:14.607Z,12.73
2018-09-08T00:11:23.248Z,12.72
2018-09-08T00:12:31.891Z,12.78
2018-09-08T00:13:40.530Z,12.81
2018-09-08T00:14:49.441Z,12.8
2018-09-08T00:15:58.078Z,12.81
2018-09-08T00:17:06.729Z,12.83
2018-09-08T00:18:15.370Z,12.83
2018-09-08T00:19:24.029Z,12.86
2018-09-08T00:20:32.925Z,12.84
2018-09-08T00:21:41.568Z,12.8
2018-09-08T00:22:50.214Z,12.88
2018-09-08T00:23:58.856Z,12.95
2018-09-08T00:25:07.498Z,12.87
2018-09-08T00:26:16.664Z,12.8
2018-09-08T00:27:25.312Z,12.94
2018-09-08T00:28:33.954Z,12.98
2018-09-08T00:29:42.600Z,12.94
2018-09-08T00:30:51.243Z,13.01
2018-09-08T00:31:59.879Z,12.91
2018-09-08T00:33:08.785Z,12.95
2018-09-08T00:34:17.429Z,12.95
2018-09-08T00:35:26.079Z,12.95
2018-09-08T00:36:34.720Z,12.93
2018-09-08T00:37:43.363Z,12.8
2018-09-08T00:38:52.006Z,12.98
2018-09-08T00:40:00.973Z,12.99
2018-09-08T00:41:09.554Z,12.9
2018-09-08T00:42:18.198Z,12.95
2018-09-08T00:43:26.842Z,13.03
2018-09-08T00:44:36.020Z,13.03
2018-09-08T00:45:44.676Z,13.01
2018-09-08T00:46:53.300Z,13.11
2018-09-08T00:48:01.942Z,12.98
2018-09-08T00:49:10.583Z,13.02
2018-09-08T00:50:19.229Z,12.98
2018-09-08T00:51:27.869Z,12.99
2018-09-08T00:52:36.513Z,12.94
2018-09-08T00:53:45.151Z,12.95
2018-09-08T00:54:53.801Z,13.02
2018-09-08T00:56:02.441Z,12.87
2018-09-08T00:57:11.086Z,12.94
2018-09-08T00:58:19.723Z,12.99
2018-09-08T00:59:28.370Z,12.98
2018-09-08T01:00:37.270Z,12.99
2018-09-08T01:01:45.910Z,13.16
2018-09-08T01:02:54.549Z,13.16
2018-09-08T01:04:03.193Z,13.16
2018-09-08T01:05:11.836Z,13.21
2018-09-08T01:06:20.492Z,13.23
2018-09-08T01:07:29.127Z,13.24
2018-09-08T01:08:37.765Z,13.21
2018-09-08T01:09:46.407Z,13.19
2018-09-08T01:10:55.050Z,13.17
2018-09-08T01:12:03.961Z,13.16
2018-09-08T01:13:12.599Z,13.17
2018-09-08T01:14:21.241Z,13.11
2018-09-08T01:15:29.889Z,13.16
2018-09-08T01:16:38.549Z,13.09
2018-09-08T01:17:47.184Z,13.06
2018-09-08T01:18:56.104Z,13.03
2018-09-08T01:20:04.740Z,13.06
2018-09-08T01:21:13.391Z,12.99
2018-09-08T01:22:22.294Z,12.95
2018-09-08T01:23:30.931Z,12.84
2018-09-08T01:24:39.571Z,12.83
2018-09-08T01:25:48.472Z,12.73
2018-09-08T01:26:57.122Z,12.8
2018-09-08T01:28:06.026Z,12.8
2018-09-08T01:29:14.671Z,12.8
2018-09-08T01:30:23.305Z,12.8
2018-09-08T01:31:31.955Z,12.73
2018-09-08T01:32:40.594Z,12.7
2018-09-08T01:33:50.032Z,12.7
2018-09-08T01:34:58.943Z,12.62
2018-09-08T01:36:07.592Z,12.62
2018-09-08T01:37:16.504Z,12.63
2018-09-08T01:38:25.149Z,12.54
2018-09-08T01:39:33.784Z,12.57
2018-09-08T01:40:42.694Z,12.51
2018-09-08T01:41:51.338Z,12.53
2018-09-08T01:42:59.982Z,12.55
2018-09-08T01:44:08.625Z,12.55
2018-09-08T01:45:17.257Z,12.51
2018-09-08T01:46:25.910Z,12.5
2018-09-08T01:47:34.540Z,12.51
2018-09-08T01:48:43.193Z,12.57
2018-09-08T01:49:51.828Z,12.4
2018-09-08T01:51:00.474Z,12.43
2018-09-08T01:52:09.115Z,12.47
2018-09-08T01:53:17.766Z,12.36
2018-09-08T01:54:26.398Z,12.33
2018-09-08T01:55:35.042Z,12.37
2018-09-08T01:56:43.685Z,12.29
2018-09-08T01:57:52.333Z,12.32
2018-09-08T01:59:00.975Z,12.29
2018-09-08T02:00:09.611Z,12.26
2018-09-08T02:01:18.250Z,12.26
2018-09-08T02:02:27.149Z,12.32
2018-09-08T02:03:35.804Z,12.23
2018-09-08T02:04:44.439Z,12.2
2018-09-08T02:05:53.086Z,12.29
2018-09-08T02:07:01.722Z,12.14
2018-09-08T02:08:10.636Z,12.21
2018-09-08T02:09:19.273Z,12.14
2018-09-08T02:10:27.921Z,12.11
2018-09-08T02:11:36.554Z,12.23
2018-09-08T02:12:45.745Z,12.15
2018-09-08T02:13:54.384Z,12.14
2018-09-08T02:15:03.033Z,12.23
2018-09-08T02:16:11.663Z,12.14
2018-09-08T02:17:20.310Z,12.23
2018-09-08T02:18:29.217Z,12.25
2018-09-08T02:19:38.117Z,12.21
2018-09-08T02:20:46.757Z,12.21
2018-09-08T02:21:55.670Z,12.21
2018-09-08T02:23:04.315Z,12.11
2018-09-08T02:24:12.964Z,12.15
2018-09-08T02:25:21.922Z,12.1
2018-09-08T02:26:30.510Z,12.14
2018-09-08T02:27:39.148Z,12.02
2018-09-08T02:28:47.795Z,12.11
2018-09-08T02:29:56.430Z,12.07
2018-09-08T02:31:05.101Z,12.07
2018-09-08T02:32:13.740Z,12.02
2018-09-08T02:33:22.383Z,12.07
2018-09-08T02:34:31.281Z,12.03
2018-09-08T02:35:39.935Z,11.96
2018-09-08T02:36:48.843Z,12
2018-09-08T02:37:57.484Z,12
2018-09-08T02:39:06.132Z,12.02
2018-09-08T02:40:14.773Z,12
2018-09-08T02:41:23.417Z,11.99
2018-09-08T02:42:32.057Z,12
2018-09-08T02:43:40.704Z,11.97
2018-09-08T02:44:49.337Z,11.95
2018-09-08T02:45:58.250Z,11.96
2018-09-08T02:47:07.150Z,12
2018-09-08T02:48:15.805Z,11.95
2018-09-08T02:49:24.437Z,12
2018-09-08T02:50:33.336Z,12
2018-09-08T02:51:41.973Z,11.91
2018-09-08T02:52:50.625Z,12
2018-09-08T02:53:59.266Z,11.91
2018-09-08T02:55:08.164Z,11.96
2018-09-08T02:56:17.069Z,11.93
2018-09-08T02:57:25.715Z,11.93
2018-09-08T02:58:34.631Z,11.93
2018-09-08T02:59:43.270Z,11.83
2018-09-08T03:00:51.917Z,11.86
2018-09-08T03:02:00.550Z,11.86
2018-09-08T03:03:09.202Z,11.78
2018-09-08T03:04:18.371Z,11.78
2018-09-08T03:05:27.023Z,11.8
2018-09-08T03:06:35.648Z,11.81
2018-09-08T03:07:44.306Z,11.81
2018-09-08T03:08:53.208Z,11.86
2018-09-08T03:10:01.854Z,11.8
2018-09-08T03:11:10.749Z,11.78
2018-09-08T03:12:19.394Z,11.83
2018-09-08T03:13:28.042Z,11.89
2018-09-08T03:14:36.695Z,11.86
2018-09-08T03:15:45.338Z,11.8
2018-09-08T03:16:53.970Z,11.78
2018-09-08T03:18:02.613Z,11.7
2018-09-08T03:19:11.252Z,11.77
2018-09-08T03:20:19.900Z,11.78
2018-09-08T03:21:28.542Z,11.71
2018-09-08T03:22:37.184Z,11.7
2018-09-08T03:23:45.824Z,11.76
2018-09-08T03:24:54.472Z,11.74
2018-09-08T03:26:03.373Z,11.71
2018-09-08T03:27:12.018Z,11.76
2018-09-08T03:28:20.978Z,11.63
2018-09-08T03:29:29.623Z,11.71
2018-09-08T03:30:38.269Z,11.71
2018-09-08T03:31:47.184Z,11.74
2018-09-08T03:32:55.826Z,11.65
2018-09-08T03:34:04.730Z,11.68
2018-09-08T03:35:13.380Z,11.67
2018-09-08T03:36:22.016Z,11.68
2018-09-08T03:37:30.918Z,11.65
2018-09-08T03:38:39.819Z,11.68
2018-09-08T03:39:48.466Z,11.65
2018-09-08T03:40:57.378Z,11.53
2018-09-08T03:42:06.287Z,11.67
2018-09-08T03:43:14.924Z,11.58
2018-09-08T03:44:23.570Z,11.59
2018-09-08T03:45:32.476Z,11.59
2018-09-08T03:46:41.124Z,11.59
2018-09-08T03:47:49.758Z,11.52
2018-09-08T03:48:58.400Z,11.59
2018-09-08T03:50:07.049Z,11.56
2018-09-08T03:51:15.955Z,11.56
2018-09-08T03:52:24.613Z,11.55
2018-09-08T03:53:33.236Z,11.52
2018-09-08T03:54:41.878Z,11.55
2018-09-08T03:55:50.519Z,11.52
2018-09-08T03:56:59.166Z,11.52
2018-09-08T03:58:07.800Z,11.44
2018-09-08T03:59:16.501Z,11.44
2018-09-08T04:00:25.336Z,11.53
2018-09-08T04:01:34.508Z,11.52
2018-09-08T04:02:43.297Z,11.45
2018-09-08T04:03:52.691Z,11.45
2018-09-08T04:05:01.474Z,11.45
2018-09-08T04:06:10.145Z,11.38
2018-09-08T04:07:19.050Z,11.4
2018-09-08T04:08:27.956Z,11.41
2018-09-08T04:09:36.875Z,11.38
2018-09-08T04:10:45.780Z,11.34
2018-09-08T04:11:54.426Z,11.31
2018-09-08T04:13:03.333Z,11.38
2018-09-08T04:14:11.974Z,11.25
2018-09-08T04:15:20.609Z,11.33
2018-09-08T04:16:29.256Z,11.26
2018-09-08T04:17:37.892Z,11.27
2018-09-08T04:18:46.538Z,11.27
2018-09-08T04:19:55.171Z,11.25
2018-09-08T04:21:03.824Z,11.3
2018-09-08T04:22:12.729Z,11.26
2018-09-08T04:23:21.641Z,11.3
2018-09-08T04:24:30.274Z,11.25
2018-09-08T04:25:38.918Z,11.27
2018-09-08T04:26:47.563Z,11.3
2018-09-08T04:27:56.206Z,11.2
2018-09-08T04:29:04.850Z,11.25
2018-09-08T04:30:13.485Z,11.33
2018-09-08T04:31:22.397Z,11.19
2018-09-08T04:32:31.036Z,11.25
2018-09-08T04:33:39.690Z,11.34
2018-09-08T04:34:48.582Z,11.19
2018-09-08T04:35:57.228Z,11.23
2018-09-08T04:37:05.864Z,11.27
2018-09-08T04:38:14.518Z,11.3
2018-09-08T04:39:23.149Z,11.22
2018-09-08T04:40:32.067Z,11.23
2018-09-08T04:41:41.234Z,11.22
2018-09-08T04:42:49.884Z,11.19
2018-09-08T04:43:58.524Z,11.18
2018-09-08T04:45:07.158Z,11.22
2018-09-08T04:46:15.796Z,11.2
2018-09-08T04:47:24.434Z,11.2
2018-09-08T04:48:33.356Z,11.2
2018-09-08T04:49:41.994Z,11.2
2018-09-08T04:50:50.640Z,11.19
2018-09-08T04:51:59.272Z,11.18
2018-09-08T04:53:07.930Z,11.23
2018-09-08T04:54:16.566Z,11.18
2018-09-08T04:55:25.212Z,11.08
2018-09-08T04:56:33.846Z,11.18
2018-09-08T04:57:42.497Z,11.16
2018-09-08T04:58:51.140Z,11.22
2018-09-08T05:00:00.045Z,11.22
2018-09-08T05:01:08.940Z,11.18
2018-09-08T05:02:17.871Z,11.18
2018-09-08T05:03:26.806Z,11.2
2018-09-08T05:04:35.707Z,11.23
2018-09-08T05:05:44.352Z,11.18
2018-09-08T05:06:52.982Z,11.18
2018-09-08T05:08:01.627Z,11.19
2018-09-08T05:09:10.327Z,11.2
2018-09-08T05:10:18.921Z,11.22
2018-09-08T05:11:27.553Z,11.15
2018-09-08T05:12:36.194Z,11.22
2018-09-08T05:13:44.831Z,11.2
2018-09-08T05:14:53.484Z,11.23
2018-09-08T05:16:02.386Z,11.22
2018-09-08T05:17:11.055Z,11.33
2018-09-08T05:18:19.681Z,11.26
2018-09-08T05:19:28.317Z,11.27
2018-09-08T05:20:36.961Z,11.18
2018-09-08T05:21:45.599Z,11.23
2018-09-08T05:22:54.237Z,11.22
2018-09-08T05:24:02.878Z,11.22
2018-09-08T05:25:11.788Z,11.3
2018-09-08T05:26:20.705Z,11.27
2018-09-08T05:27:29.346Z,11.19
2018-09-08T05:28:38.401Z,11.23
2018-09-08T05:29:47.323Z,11.18
2018-09-08T05:30:55.964Z,11.19
2018-09-08T05:32:04.865Z,11.25
2018-09-08T05:33:13.508Z,11.23
2018-09-08T05:34:22.411Z,11.23
2018-09-08T05:35:31.055Z,11.19
2018-09-08T05:36:39.698Z,11.23
2018-09-08T05:37:48.338Z,11.22
2018-09-08T05:38:57.250Z,11.2
2018-09-08T05:40:05.892Z,11.27
2018-09-08T05:41:14.561Z,11.22
2018-09-08T05:42:23.181Z,11.31
2018-09-08T05:43:31.822Z,11.31
2018-09-08T05:44:40.462Z,11.26
2018-09-08T05:45:49.103Z,11.31
2018-09-08T05:46:57.752Z,11.27
2018-09-08T05:48:06.390Z,11.25
2018-09-08T05:49:15.037Z,11.34
2018-09-08T05:50:23.676Z,11.31
2018-09-08T05:51:32.322Z,11.35
2018-09-08T05:52:40.959Z,11.33
2018-09-08T05:53:49.603Z,11.38
2018-09-08T05:54:58.247Z,11.45
2018-09-08T05:56:06.890Z,11.43
2018-09-08T05:57:15.529Z,11.49
2018-09-08T05:58:24.469Z,11.43
2018-09-08T05:59:33.096Z,11.49
2018-09-08T06:00:41.733Z,11.53
2018-09-08T06:01:50.381Z,11.51
2018-09-08T06:02:59.024Z,11.52
2018-09-08T06:04:07.669Z,11.71
2018-09-08T06:05:16.303Z,11.68
2018-09-08T06:06:24.948Z,11.7
2018-09-08T06:07:33.598Z,11.68
2018-09-08T06:08:42.236Z,11.7
2018-09-08T06:09:50.879Z,11.7
2018-09-08T06:10:59.522Z,11.77
2018-09-08T06:12:08.163Z,11.77
2018-09-08T06:13:17.069Z,11.78
2018-09-08T06:14:25.977Z,11.8
2018-09-08T06:15:34.617Z,11.85
2018-09-08T06:16:43.521Z,11.83
2018-09-08T06:17:52.162Z,11.86
2018-09-08T06:19:00.800Z,11.88
2018-09-08T06:20:09.707Z,12.02
2018-09-08T06:21:18.615Z,12.03
2018-09-08T06:22:27.258Z,12
2018-09-08T06:23:36.160Z,12.08
2018-09-08T06:24:44.808Z,12.15
2018-09-08T06:25:53.449Z,12.18
2018-09-08T06:27:02.104Z,12.2
2018-09-08T06:28:11.002Z,12.21
2018-09-08T06:29:19.653Z,12.2
2018-09-08T06:30:28.285Z,12.15
2018-09-08T06:31:36.929Z,12.26
2018-09-08T06:32:45.566Z,12.3
2018-09-08T06:33:54.747Z,12.26
2018-09-08T06:35:03.277Z,12.3
2018-09-08T06:36:12.475Z,12.39
2018-09-08T06:37:21.117Z,12.47
2018-09-08T06:38:29.752Z,12.44
2018-09-08T06:39:38.396Z,12.61
2018-09-08T06:40:47.039Z,12.62
2018-09-08T06:41:55.685Z,12.53
2018-09-08T06:43:04.321Z,12.65
2018-09-08T06:44:12.964Z,12.61
2018-09-08T06:45:21.611Z,12.63
2018-09-08T06:46:30.520Z,12.7
2018-09-08T06:47:39.159Z,12.66
2018-09-08T06:48:48.067Z,12.69
2018-09-08T06:49:56.720Z,12.81
2018-09-08T06:51:05.626Z,12.78
2018-09-08T06:52:14.331Z,12.83
2018-09-08T06:53:22.916Z,12.9
2018-09-08T06:54:31.560Z,12.87
2018-09-08T06:55:40.199Z,12.95
2018-09-08T06:56:48.859Z,12.99
2018-09-08T06:57:57.537Z,13.02
2018-09-08T06:59:06.998Z,13.05
2018-09-08T07:00:15.633Z,13.11
2018-09-08T07:01:24.281Z,13.19
2018-09-08T07:02:33.184Z,13.21
2018-09-08T07:03:41.836Z,13.17
2018-09-08T07:04:50.474Z,13.17
2018-09-08T07:05:59.119Z,13.3
2018-09-08T07:07:07.758Z,13.24
2018-09-08T07:08:16.663Z,13.28
2018-09-08T07:09:25.299Z,13.31
2018-09-08T07:10:33.943Z,13.24
2018-09-08T07:11:42.586Z,13.36
2018-09-08T07:12:51.495Z,13.37
2018-09-08T07:14:00.133Z,13.4
2018-09-08T07:15:09.047Z,13.42
2018-09-08T07:16:17.945Z,13.5
2018-09-08T07:17:26.581Z,13.62
2018-09-08T07:18:35.234Z,13.64
2018-09-08T07:19:43.867Z,13.73
2018-09-08T07:20:52.518Z,13.82
2018-09-08T07:22:01.154Z,13.97
2018-09-08T07:23:09.806Z,14.12
2018-09-08T07:24:18.441Z,14.26
2018-09-08T07:25:27.088Z,14.25
2018-09-08T07:26:35.986Z,14.36
2018-09-08T07:27:44.637Z,14.4
2018-09-08T07:28:53.282Z,14.41
2018-09-08T07:30:01.925Z,14.48
2018-09-08T07:31:10.648Z,14.52
2018-09-08T07:32:19.218Z,14.45
2018-09-08T07:33:28.131Z,14.52
2018-09-08T07:34:36.769Z,14.49
2018-09-08T07:35:45.417Z,14.51
2018-09-08T07:36:54.051Z,14.43
2018-09-08T07:38:02.971Z,14.4
2018-09-08T07:39:11.609Z,14.45
2018-09-08T07:40:20.257Z,14.41
2018-09-08T07:41:28.888Z,14.38
2018-09-08T07:42:37.542Z,14.4
2018-09-08T07:43:46.185Z,14.4
2018-09-08T07:44:55.096Z,14.33
2018-09-08T07:46:03.739Z,14.33
2018-09-08T07:47:12.640Z,14.38
2018-09-08T07:48:21.287Z,14.44
2018-09-08T07:49:29.933Z,14.44
2018-09-08T07:50:38.579Z,14.41
2018-09-08T07:51:47.212Z,14.43
2018-09-08T07:52:55.860Z,14.53
2018-09-08T07:54:04.629Z,14.52
2018-09-08T07:55:13.594Z,14.63
2018-09-08T07:56:22.228Z,14.73
2018-09-08T07:57:30.874Z,14.77
2018-09-08T07:58:39.515Z,14.81
2018-09-08T07:59:48.169Z,14.89
2018-09-08T08:00:56.801Z,14.89
2018-09-08T08:02:05.446Z,14.93
2018-09-08T08:03:14.089Z,14.96
2018-09-08T08:04:22.741Z,14.89
2018-09-08T08:05:31.381Z,14.97
2018-09-08T08:06:40.050Z,15.02
2018-09-08T08:07:48.666Z,15.05
2018-09-08T08:08:57.310Z,15
2018-09-08T08:10:05.959Z,15.18
2018-09-08T08:11:14.860Z,15.19
2018-09-08T08:12:23.509Z,15.18
2018-09-08T08:13:32.146Z,15.14
2018-09-08T08:14:41.068Z,15.26
2018-09-08T08:15:49.970Z,15.27
2018-09-08T08:16:58.611Z,15.29
2018-09-08T08:18:07.246Z,15.27
2018-09-08T08:19:15.897Z,15.33
2018-09-08T08:20:24.541Z,15.33
2018-09-08T08:21:33.186Z,15.3
2018-09-08T08:22:41.823Z,15.35
2018-09-08T08:23:50.469Z,15.37
2018-09-08T08:24:59.117Z,15.45
2018-09-08T08:26:07.764Z,15.41
2018-09-08T08:27:16.409Z,15.5
2018-09-08T08:28:25.046Z,15.6
2018-09-08T08:29:33.961Z,15.6
2018-09-08T08:30:42.601Z,15.6
2018-09-08T08:31:51.522Z,15.69
2018-09-08T08:33:00.425Z,15.63
2018-09-08T08:34:09.073Z,15.65
2018-09-08T08:35:17.977Z,15.7
2018-09-08T08:36:26.630Z,15.66
2018-09-08T08:37:35.264Z,15.84
2018-09-08T08:38:43.910Z,15.75
2018-09-08T08:39:52.550Z,15.84
2018-09-08T08:41:01.204Z,15.85
2018-09-08T08:42:09.847Z,15.96
2018-09-08T08:43:18.508Z,16.05
2018-09-08T08:44:27.128Z,16.17
2018-09-08T08:45:35.770Z,16.16
2018-09-08T08:46:44.423Z,16.21
2018-09-08T08:47:53.060Z,16.22
2018-09-08T08:49:01.977Z,16.28
2018-09-08T08:50:10.613Z,16.32
2018-09-08T08:51:19.269Z,16.28
2018-09-08T08:52:27.939Z,16.41
2018-09-08T08:53:36.555Z,16.4
2018-09-08T08:54:45.189Z,16.43
2018-09-08T08:55:53.932Z,16.43
2018-09-08T08:57:02.487Z,16.5
2018-09-08T08:58:11.136Z,16.51
2018-09-08T08:59:19.776Z,16.47
2018-09-08T09:00:28.420Z,16.59
2018-09-08T09:01:37.074Z,16.65
2018-09-08T09:02:46.012Z,16.65
2018-09-08T09:03:54.626Z,16.69
2018-09-08T09:05:03.264Z,16.72
2018-09-08T09:06:11.913Z,16.74
2018-09-08T09:07:21.390Z,16.76
2018-09-08T09:08:31.512Z,16.91
2018-09-08T09:09:41.307Z,17.01
2018-09-08T09:10:49.952Z,16.95
2018-09-08T09:11:58.596Z,16.99
2018-09-08T09:13:07.465Z,17.04
2018-09-08T09:14:16.149Z,17.05
2018-09-08T09:15:25.156Z,17.07
2018-09-08T09:16:35.962Z,17.14
2018-09-08T09:17:44.609Z,17.1
2018-09-08T09:18:53.679Z,17.23
2018-09-08T09:20:04.545Z,17.2
2018-09-08T09:21:13.185Z,17.17
2018-09-08T09:22:21.828Z,17.14
2018-09-08T09:23:30.482Z,17.22
2018-09-08T09:24:40.471Z,17.27
2018-09-08T09:25:49.526Z,17.2
2018-09-08T09:26:58.175Z,17.2
2018-09-08T09:28:06.828Z,17.34
2018-09-08T09:29:15.473Z,17.37
2018-09-08T09:30:24.119Z,17.42
2018-09-08T09:31:32.760Z,17.49
2018-09-08T09:32:41.411Z,17.52
2018-09-08T09:33:50.049Z,17.5
2018-09-08T09:34:58.695Z,17.68
2018-09-08T09:36:07.878Z,17.54
2018-09-08T09:37:16.545Z,17.6
2018-09-08T09:38:25.521Z,17.65
2018-09-08T09:39:34.169Z,17.63
2018-09-08T09:40:42.817Z,17.68
2018-09-08T09:41:51.459Z,17.75
2018-09-08T09:43:00.105Z,17.8
2018-09-08T09:44:08.787Z,17.84
2018-09-08T09:45:17.406Z,17.84
2018-09-08T09:46:26.042Z,17.93
2018-09-08T09:47:34.688Z,17.9
2018-09-08T09:48:43.335Z,18.06
2018-09-08T09:49:51.983Z,18.12
2018-09-08T09:51:00.625Z,18.08
2018-09-08T09:52:09.540Z,18.19
2018-09-08T09:53:18.233Z,18.11
2018-09-08T09:54:26.833Z,18.13
2018-09-08T09:55:35.743Z,18.15
2018-09-08T09:56:44.391Z,18.08
2018-09-08T09:57:53.034Z,18.19
2018-09-08T09:59:01.678Z,18.28
2018-09-08T10:00:10.329Z,18.24
2018-09-08T10:01:18.976Z,18.41
2018-09-08T10:02:27.621Z,18.45
2018-09-08T10:03:36.263Z,18.52
2018-09-08T10:04:44.914Z,18.67
2018-09-08T10:05:53.563Z,18.67
2018-09-08T10:07:02.210Z,18.76
2018-09-08T10:08:10.859Z,18.71
2018-09-08T10:09:19.508Z,18.78
2018-09-08T10:10:28.155Z,18.73
2018-09-08T10:11:36.800Z,18.73
2018-09-08T10:12:45.452Z,18.71
2018-09-08T10:13:54.096Z,18.73
2018-09-08T10:15:02.741Z,18.68
2018-09-08T10:16:11.387Z,18.57
2018-09-08T10:17:20.033Z,18.6
2018-09-08T10:18:28.685Z,18.6
2018-09-08T10:19:37.332Z,18.57
2018-09-08T10:20:45.975Z,18.49
2018-09-08T10:21:54.620Z,18.53
2018-09-08T10:23:03.331Z,18.51
2018-09-08T10:24:12.261Z,18.41
2018-09-08T10:25:21.167Z,18.46
2018-09-08T10:26:29.987Z,18.51
2018-09-08T10:27:38.462Z,18.58
2018-09-08T10:28:47.106Z,18.61
2018-09-08T10:29:56.600Z,18.7
2018-09-08T10:31:06.885Z,18.73
2018-09-08T10:32:17.203Z,18.73
2018-09-08T10:33:25.690Z,18.82
2018-09-08T10:34:34.340Z,18.85
2018-09-08T10:35:42.991Z,18.88
2018-09-08T10:36:51.636Z,19.07
2018-09-08T10:38:00.281Z,19.07
2018-09-08T10:39:08.927Z,19.15
2018-09-08T10:40:17.990Z,19.19
2018-09-08T10:41:26.963Z,19.15
2018-09-08T10:42:35.611Z,19.23
2018-09-08T10:43:44.520Z,19.27
2018-09-08T10:44:53.174Z,19.27
2018-09-08T10:46:02.126Z,19.3
2018-09-08T10:47:10.732Z,19.26
2018-09-08T10:48:19.377Z,19.29
2018-09-08T10:49:28.034Z,19.27
2018-09-08T10:50:36.945Z,19.23
2018-09-08T10:51:45.592Z,19.26
2018-09-08T10:52:54.237Z,19.24
2018-09-08T10:54:02.886Z,19.2
2018-09-08T10:55:11.537Z,19.17
2018-09-08T10:56:20.192Z,19.23
2018-09-08T10:57:28.840Z,19.17
2018-09-08T10:58:37.484Z,19.09
2018-09-08T10:59:46.138Z,19.19
2018-09-08T11:00:54.795Z,19.19
2018-09-08T11:02:03.686Z,19.15
2018-09-08T11:03:12.088Z,19.22
2018-09-08T11:04:20.740Z,19.17
2018-09-08T11:05:29.392Z,19.12
2018-09-08T11:06:38.039Z,19.12
2018-09-08T11:07:46.676Z,19.09
2018-09-08T11:08:55.331Z,19.01
2018-09-08T11:10:03.986Z,18.94
2018-09-08T11:11:12.634Z,18.97
2018-09-08T11:12:21.283Z,18.92
2018-09-08T11:13:29.922Z,18.88
2018-09-08T11:14:38.841Z,18.86
2018-09-08T11:15:47.495Z,18.89
2018-09-08T11:16:56.147Z,18.96
2018-09-08T11:18:05.049Z,18.91
2018-09-08T11:19:13.703Z,18.97
2018-09-08T11:20:22.353Z,18.96
2018-09-08T11:21:31.273Z,19.04
2018-09-08T11:22:39.911Z,19.07
2018-09-08T11:23:48.558Z,19.19
2018-09-08T11:24:57.203Z,19.12
2018-09-08T11:26:05.861Z,19.24
2018-09-08T11:27:14.506Z,19.27
2018-09-08T11:28:23.415Z,19.35
2018-09-08T11:29:32.325Z,19.3
2018-09-08T11:30:41.051Z,19.32
2018-09-08T11:31:50.338Z,19.27
2018-09-08T11:32:58.980Z,19.34
2018-09-08T11:34:07.631Z,19.27
2018-09-08T11:35:16.316Z,19.22
2018-09-08T11:36:24.929Z,19.23
2018-09-08T11:37:33.834Z,19.3
2018-09-08T11:38:42.487Z,19.41
2018-09-08T11:39:51.124Z,19.52
2018-09-08T11:40:59.782Z,19.47
2018-09-08T11:42:08.431Z,19.39
2018-09-08T11:43:17.078Z,19.45
2018-09-08T11:44:25.715Z,19.38
2018-09-08T11:45:34.366Z,19.41
2018-09-08T11:46:43.300Z,19.39
2018-09-08T11:47:51.944Z,19.52
2018-09-08T11:49:00.596Z,19.47
2018-09-08T11:50:09.234Z,19.38
2018-09-08T11:51:18.161Z,19.41
2018-09-08T11:52:26.803Z,19.45
2018-09-08T11:53:35.458Z,19.39
2018-09-08T11:54:44.356Z,19.53
2018-09-08T11:55:53.281Z,19.56
2018-09-08T11:57:02.185Z,19.64
2018-09-08T11:58:10.840Z,19.77
2018-09-08T11:59:19.481Z,19.93
2018-09-08T12:00:28.131Z,20
2018-09-08T12:01:36.776Z,20.08
2018-09-08T12:02:45.437Z,20.17
2018-09-08T12:03:54.086Z,20.22
2018-09-08T12:05:02.991Z,20.24
2018-09-08T12:06:11.902Z,20.29
2018-09-08T12:07:20.549Z,20.21
2018-09-08T12:08:29.460Z,20.18
2018-09-08T12:09:38.105Z,20.26
2018-09-08T12:10:46.773Z,20.1
2018-09-08T12:11:55.397Z,20.1
2018-09-08T12:13:04.052Z,20.04
2018-09-08T12:14:12.700Z,19.94
2018-09-08T12:15:21.350Z,19.96
2018-09-08T12:16:30.255Z,19.89
2018-09-08T12:17:38.907Z,19.92
2018-09-08T12:18:47.557Z,19.85
2018-09-08T12:19:56.207Z,19.9
2018-09-08T12:21:04.851Z,19.87
2018-09-08T12:22:13.578Z,19.89
2018-09-08T12:23:22.152Z,19.89
2018-09-08T12:24:31.063Z,19.85
2018-09-08T12:25:39.713Z,19.81
2018-09-08T12:26:48.356Z,19.81
2018-09-08T12:27:57.008Z,19.77
2018-09-08T12:29:05.658Z,19.77
2018-09-08T12:30:14.312Z,19.74
2018-09-08T12:31:22.954Z,19.7
2018-09-08T12:32:31.972Z,19.81
2018-09-08T12:33:40.967Z,19.81
2018-09-08T12:34:49.883Z,19.92
2018-09-08T12:35:58.789Z,19.96
2018-09-08T12:37:07.487Z,19.97
2018-09-08T12:38:16.088Z,20.02
2018-09-08T12:39:24.740Z,19.94
2018-09-08T12:40:33.389Z,19.92
2018-09-08T12:41:42.558Z,19.96
2018-09-08T12:42:51.202Z,19.96
2018-09-08T12:43:59.854Z,20.02
2018-09-08T12:45:08.513Z,20
2018-09-08T12:46:17.161Z,20.04
2018-09-08T12:47:25.808Z,20.04
2018-09-08T12:48:34.450Z,19.94
2018-09-08T12:49:43.110Z,19.96
2018-09-08T12:50:51.759Z,19.99
2018-09-08T12:52:00.672Z,19.9
2018-09-08T12:53:09.316Z,19.82
2018-09-08T12:54:17.968Z,19.84
2018-09-08T12:55:26.622Z,19.75
2018-09-08T12:56:35.310Z,19.84
2018-09-08T12:57:43.951Z,19.78
2018-09-08T12:58:53.332Z,19.85
2018-09-08T13:00:01.987Z,19.9
2018-09-08T13:01:10.631Z,19.94
2018-09-08T13:02:19.547Z,20.02
2018-09-08T13:03:28.188Z,20.04
2018-09-08T13:04:36.838Z,20.03
2018-09-08T13:05:45.747Z,20.1
2018-09-08T13:06:54.405Z,20.17
2018-09-08T13:08:03.043Z,20.12
2018-09-08T13:09:11.694Z,20.07
2018-09-08T13:10:20.340Z,20.11
2018-09-08T13:11:28.998Z,20.02
2018-09-08T13:12:37.636Z,20.04
2018-09-08T13:13:46.291Z,20.12
2018-09-08T13:14:55.195Z,20.22
2018-09-08T13:16:03.851Z,20.14
2018-09-08T13:17:12.493Z,20.12
2018-09-08T13:18:21.141Z,20.18
2018-09-08T13:19:29.785Z,20.1
2018-09-08T13:20:38.433Z,20.07
2018-09-08T13:21:47.355Z,19.96
2018-09-08T13:22:56.254Z,19.96
2018-09-08T13:24:05.009Z,19.94
2018-09-08T13:25:13.554Z,19.92
2018-09-08T13:26:22.208Z,19.96
2018-09-08T13:27:30.851Z,20.07
2018-09-08T13:28:39.774Z,20.08
2018-09-08T13:29:48.409Z,20.11
2018-09-08T13:30:57.069Z,20.1
2018-09-08T13:32:05.717Z,20.07
2018-09-08T13:33:14.644Z,20
2018-09-08T13:34:23.283Z,20.1
2018-09-08T13:35:32.199Z,20.15
2018-09-08T13:36:41.113Z,20.17
2018-09-08T13:37:49.762Z,20.21
2018-09-08T13:38:58.412Z,20.29
2018-09-08T13:40:07.051Z,20.22
2018-09-08T13:41:15.704Z,20.32
2018-09-08T13:42:24.347Z,20.36
2018-09-08T13:43:33.010Z,20.34
2018-09-08T13:44:41.915Z,20.42
2018-09-08T13:45:50.569Z,20.36
2018-09-08T13:46:59.283Z,20.37
2018-09-08T13:48:07.869Z,20.36
2018-09-08T13:49:16.506Z,20.34
2018-09-08T13:50:25.162Z,20.36
2018-09-08T13:51:33.809Z,20.34
2018-09-08T13:52:42.493Z,20.44
2018-09-08T13:53:51.732Z,20.42
2018-09-08T13:55:00.375Z,20.5
2018-09-08T13:56:09.021Z,20.46
2018-09-08T13:57:17.667Z,20.52
2018-09-08T13:58:26.326Z,20.52
2018-09-08T13:59:35.236Z,20.44
2018-09-08T14:00:43.891Z,20.56
2018-09-08T14:01:52.530Z,20.56
2018-09-08T14:03:01.186Z,20.74
2018-09-08T14:04:09.901Z,20.74
2018-09-08T14:05:18.483Z,20.77
2018-09-08T14:06:27.664Z,20.7
2018-09-08T14:07:36.306Z,20.75
2018-09-08T14:08:44.959Z,20.82
2018-09-08T14:09:53.602Z,20.82
2018-09-08T14:11:03.572Z,20.78
2018-09-08T14:12:12.222Z,20.78
2018-09-08T14:13:20.861Z,20.8
2018-09-08T14:14:29.509Z,20.8
2018-09-08T14:15:38.157Z,20.71
2018-09-08T14:16:46.814Z,20.67
2018-09-08T14:17:55.739Z,20.71
2018-09-08T14:19:04.661Z,20.59
2018-09-08T14:20:13.298Z,20.55
2018-09-08T14:21:21.955Z,20.5
2018-09-08T14:22:30.599Z,20.44
2018-09-08T14:23:39.254Z,20.37
2018-09-08T14:24:47.893Z,20.37
2018-09-08T14:25:56.820Z,20.3
2018-09-08T14:27:05.469Z,20.32
2018-09-08T14:28:14.121Z,20.3
2018-09-08T14:29:22.759Z,20.27
2018-09-08T14:30:31.679Z,20.29
2018-09-08T14:31:40.334Z,20.27
2018-09-08T14:32:48.985Z,20.24
2018-09-08T14:33:57.638Z,20.29
2018-09-08T14:35:06.281Z,20.19
2018-09-08T14:36:14.934Z,20.24
2018-09-08T14:37:23.587Z,20.22
2018-09-08T14:38:32.509Z,20.26
2018-09-08T14:39:41.148Z,20.26
2018-09-08T14:40:49.802Z,20.21
2018-09-08T14:41:58.443Z,20.27
2018-09-08T14:43:07.101Z,20.26
2018-09-08T14:44:15.740Z,20.19
2018-09-08T14:45:24.391Z,20.22
2018-09-08T14:46:33.035Z,20.19
2018-09-08T14:47:41.707Z,20.3
2018-09-08T14:48:50.331Z,20.29
2018-09-08T14:49:58.978Z,20.39